Time;durP1;ratioP1;P1;durP2;ratioP2;P2;SDS_P1;SDS_P2;PMS_P1;PMS_P2;Temp;Humidity;BMP_temperature;BMP_pressure;BME280_temperature;BME280_humidity;BME280_pressure;Samples;Min_cycle;Max_cycle;Signal;HPM_P1;HPM_P2
2023/07/14 00:01:22;;;;;;;3.05;1.70;;;14.20;99.90;;;;;;4975437;28;20108;-57
2023/07/14 00:03:48;;;;;;;2.83;1.55;;;14.20;99.90;;;;;;4977581;28;20118;-56
2023/07/14 00:06:14;;;;;;;4.43;1.70;;;14.10;99.90;;;;;;4976802;28;20173;-56
2023/07/14 00:08:41;;;;;;;3.20;1.80;;;14.00;99.90;;;;;;4976757;28;20543;-56
2023/07/14 00:11:16;;;;;;;2.60;1.42;;;13.90;99.90;;;;;;4978189;28;20026;-57
2023/07/14 00:13:42;;;;;;;4.50;1.90;;;13.80;99.90;;;;;;4977167;28;20042;-56
2023/07/14 00:16:29;;;;;;;2.97;1.63;;;13.80;99.90;;;;;;4979008;28;20031;-57
2023/07/14 00:18:55;;;;;;;5.68;2.00;;;13.70;99.90;;;;;;4976291;28;20081;-57
2023/07/14 00:21:23;;;;;;;6.13;2.00;;;13.70;99.90;;;;;;4978132;28;20043;-56
2023/07/14 00:23:54;;;;;;;3.30;1.60;;;13.60;99.90;;;;;;4978120;28;20042;-56
2023/07/14 00:26:20;;;;;;;7.22;2.03;;;13.60;99.90;;;;;;4976010;28;20049;-57
2023/07/14 00:28:50;;;;;;;4.20;1.98;;;13.50;99.90;;;;;;4975972;28;20104;-57
2023/07/14 00:31:18;;;;;;;4.13;1.92;;;13.50;99.90;;;;;;4978551;28;20138;-56
2023/07/14 00:33:47;;;;;;;2.60;1.85;;;13.50;99.90;;;;;;4978353;28;20122;-57
2023/07/14 00:36:13;;;;;;;8.23;2.30;;;13.50;99.90;;;;;;4979403;28;20021;-57
2023/07/14 00:38:39;;;;;;;5.95;2.00;;;13.50;99.90;;;;;;4975889;28;20026;-57
2023/07/14 00:41:11;;;;;;;3.67;1.75;;;13.60;99.90;;;;;;4978270;28;20046;-57
2023/07/14 00:43:37;;;;;;;2.97;1.80;;;13.60;99.90;;;;;;4977301;28;20122;-57
2023/07/14 00:46:04;;;;;;;4.72;2.05;;;13.60;99.90;;;;;;4979441;28;20109;-56
2023/07/14 00:48:30;;;;;;;5.00;2.38;;;13.60;99.90;;;;;;4978162;28;20030;-58
2023/07/14 00:51:15;;;;;;;4.90;2.42;;;13.60;99.90;;;;;;4979393;28;20042;-57
2023/07/14 00:53:43;;;;;;;3.63;2.33;;;13.50;99.90;;;;;;4983693;28;20023;-56
2023/07/14 00:56:14;;;;;;;6.35;1.88;;;13.50;99.90;;;;;;4979854;28;21011;-57
2023/07/14 00:58:45;;;;;;;;;;;13.50;99.90;;;;;;4979440;28;20031;-57
2023/07/14 01:01:13;;;;;;;4.25;2.22;;;13.40;99.90;;;;;;4976046;28;19910;-57
2023/07/14 01:03:43;;;;;;;5.32;2.10;;;13.30;99.90;;;;;;4979741;28;20034;-56
2023/07/14 01:06:17;;;;;;;3.00;1.77;;;13.30;99.90;;;;;;4981552;28;20032;-56
2023/07/14 01:08:49;;;;;;;5.07;1.98;;;13.30;99.90;;;;;;4982852;28;20051;-54
2023/07/14 01:11:16;;;;;;;3.40;2.00;;;13.10;99.90;;;;;;4984706;28;20022;-57
2023/07/14 01:13:43;;;;;;;5.07;2.00;;;13.10;99.90;;;;;;4979740;28;20034;-55
2023/07/14 01:16:11;;;;;;;6.63;2.40;;;13.00;99.90;;;;;;4978200;28;20090;-55
2023/07/14 01:18:37;;;;;;;6.90;2.08;;;13.00;99.90;;;;;;4979007;28;20117;-55
2023/07/14 01:21:03;;;;;;;7.22;2.10;;;12.90;99.90;;;;;;4974316;28;20039;-57
2023/07/14 01:23:46;;;;;;;4.60;1.80;;;12.80;99.90;;;;;;4980509;28;20030;-56
2023/07/14 01:26:41;;;;;;;10.70;2.38;;;12.70;99.90;;;;;;4980345;28;20015;-56
2023/07/14 01:29:07;;;;;;;2.13;1.70;;;12.60;99.90;;;;;;4983893;28;20038;-56
2023/07/14 01:31:35;;;;;;;2.38;1.80;;;12.60;99.90;;;;;;4982441;28;20035;-55
2023/07/14 01:34:02;;;;;;;7.95;1.80;;;12.50;99.90;;;;;;4980112;28;20035;-53
2023/07/14 01:36:29;;;;;;;2.50;2.03;;;12.40;99.90;;;;;;4978993;28;20034;-56
2023/07/14 01:38:55;;;;;;;5.85;2.13;;;12.40;99.90;;;;;;4979220;28;20027;-55
2023/07/14 01:41:21;;;;;;;8.80;1.90;;;12.40;99.90;;;;;;4981959;28;20129;-55
2023/07/14 01:43:48;;;;;;;3.33;2.08;;;12.30;99.90;;;;;;4984324;28;20023;-54
2023/07/14 01:46:22;;;;;;;2.95;1.83;;;12.40;99.90;;;;;;4980679;28;20073;-56
2023/07/14 01:48:57;;;;;;;4.82;2.00;;;12.30;99.90;;;;;;4979156;28;20026;-56
2023/07/14 01:51:25;;;;;;;3.22;1.85;;;12.30;99.90;;;;;;4975139;28;20046;-57
2023/07/14 01:54:23;;;;;;;5.63;2.30;;;12.40;99.90;;;;;;4978415;28;20034;-56
2023/07/14 01:56:51;;;;;;;6.22;2.40;;;12.30;99.90;;;;;;4980566;28;20653;-55
2023/07/14 01:59:29;;;;;;;2.78;1.92;;;12.30;99.90;;;;;;4981570;28;20038;-57
2023/07/14 02:01:59;;;;;;;3.80;1.77;;;12.30;99.90;;;;;;4978474;28;20038;-56
2023/07/14 02:04:29;;;;;;;2.65;1.80;;;12.30;99.90;;;;;;4979838;28;20049;-57
2023/07/14 02:06:56;;;;;;;2.53;2.33;;;12.30;99.90;;;;;;4977883;28;20026;-56
2023/07/14 02:09:23;;;;;;;5.07;2.60;;;12.40;99.90;;;;;;4980239;28;20018;-57
2023/07/14 02:11:53;;;;;;;2.70;2.08;;;12.40;99.90;;;;;;4979691;28;20065;-56
2023/07/14 02:14:21;;;;;;;6.38;2.63;;;12.30;99.90;;;;;;4979213;28;20352;-57
2023/07/14 02:16:49;;;;;;;6.00;2.20;;;12.30;99.90;;;;;;4980983;28;20065;-56
2023/07/14 02:19:24;;;;;;;3.33;2.60;;;12.30;99.90;;;;;;4980897;28;20046;-56
2023/07/14 02:21:51;;;;;;;5.32;3.15;;;12.30;99.90;;;;;;4977640;28;20034;-56
2023/07/14 02:24:26;;;;;;;3.70;2.53;;;12.20;99.90;;;;;;4977345;28;20491;-55
2023/07/14 02:27:02;;;;;;;4.28;2.65;;;12.20;99.90;;;;;;4979956;28;20530;-56
2023/07/14 02:29:28;;;;;;;3.38;2.40;;;12.20;99.90;;;;;;4975581;28;20026;-56
2023/07/14 02:32:39;;;;;;;5.50;2.40;;;12.20;99.90;;;;;;4985783;28;20022;-56
2023/07/14 02:35:20;;;;;;;3.28;2.65;;;12.20;99.90;;;;;;4978039;28;20110;-57
2023/07/14 02:38:04;;;;;;;4.78;2.47;;;12.10;99.90;;;;;;4980677;28;20038;-56
2023/07/14 02:40:38;;;;;;;5.10;2.40;;;12.00;99.90;;;;;;4980521;28;20030;-56
2023/07/14 02:43:05;;;;;;;3.72;2.08;;;12.00;99.90;;;;;;4980112;28;20025;-56
2023/07/14 02:45:35;;;;;;;2.95;2.10;;;11.80;99.90;;;;;;4977424;28;20027;-56
2023/07/14 02:48:04;;;;;;;4.43;2.47;;;11.70;99.90;;;;;;4979640;28;20039;-57
2023/07/14 02:50:29;;;;;;;3.67;2.20;;;11.60;99.90;;;;;;4978519;28;20014;-57
2023/07/14 02:52:55;;;;;;;5.05;2.40;;;11.50;99.90;;;;;;4977081;28;20019;-56
2023/07/14 02:55:20;;;;;;;5.53;2.88;;;11.40;99.90;;;;;;4978543;28;20109;-54
2023/07/14 02:57:46;;;;;;;4.13;2.50;;;11.40;99.90;;;;;;4979314;28;20030;-57
2023/07/14 03:00:12;;;;;;;3.97;2.53;;;11.30;99.90;;;;;;4980526;28;20034;-55
2023/07/14 03:02:38;;;;;;;2.40;2.20;;;11.30;99.90;;;;;;4981068;28;20023;-56
2023/07/14 03:05:05;;;;;;;8.48;2.60;;;11.30;99.90;;;;;;4978472;28;20362;-57
2023/07/14 03:07:32;;;;;;;2.70;2.45;;;11.30;99.90;;;;;;4978721;28;20169;-57
2023/07/14 03:09:58;;;;;;;2.83;2.42;;;11.30;99.90;;;;;;4978089;28;20371;-57
2023/07/14 03:12:23;;;;;;;3.55;2.65;;;11.30;99.90;;;;;;4979319;28;20026;-57
2023/07/14 03:14:49;;;;;;;6.70;2.45;;;11.30;99.90;;;;;;4979349;28;20023;-55
2023/07/14 03:17:14;;;;;;;2.50;1.98;;;11.30;99.90;;;;;;4980455;28;20526;-56
2023/07/14 03:19:40;;;;;;;4.03;2.63;;;11.30;99.90;;;;;;4976674;28;20047;-56
2023/07/14 03:22:06;;;;;;;3.33;2.60;;;11.30;99.90;;;;;;4979714;28;20426;-57
2023/07/14 03:24:31;;;;;;;2.63;2.42;;;11.30;99.90;;;;;;4978963;28;20113;-56
2023/07/14 03:26:57;;;;;;;10.30;2.50;;;11.30;99.90;;;;;;4976739;28;20050;-56
2023/07/14 03:29:23;;;;;;;9.93;2.42;;;11.30;99.90;;;;;;4977926;28;20965;-55
2023/07/14 03:31:48;;;;;;;3.55;2.53;;;11.20;99.90;;;;;;4977705;28;20031;-56
2023/07/14 03:34:16;;;;;;;5.25;3.03;;;11.20;99.90;;;;;;4979183;28;20030;-55
2023/07/14 03:36:42;;;;;;;4.28;2.35;;;11.20;99.90;;;;;;4976406;28;20047;-56
2023/07/14 03:39:25;;;;;;;3.17;2.60;;;11.20;99.90;;;;;;4978069;28;20120;-56
2023/07/14 03:41:52;;;;;;;4.45;2.72;;;11.20;99.90;;;;;;4978048;28;20033;-56
2023/07/14 03:44:19;;;;;;;3.17;2.35;;;11.20;99.90;;;;;;4974283;28;20029;-56
2023/07/14 03:46:45;;;;;;;3.92;2.70;;;11.20;99.90;;;;;;4976033;28;20096;-56
2023/07/14 03:49:11;;;;;;;3.22;2.92;;;11.20;99.90;;;;;;4975408;28;20035;-56
2023/07/14 03:51:37;;;;;;;5.00;2.75;;;11.20;99.90;;;;;;4975243;28;20774;-57
2023/07/14 03:54:03;;;;;;;3.17;2.75;;;11.20;99.90;;;;;;4977707;28;20111;-56
2023/07/14 03:56:28;;;;;;;2.63;2.33;;;11.20;99.90;;;;;;4976534;28;20497;-57
2023/07/14 03:58:54;;;;;;;2.30;2.10;;;11.30;99.90;;;;;;4979056;28;20038;-57
2023/07/14 04:01:19;;;;;;;4.72;3.00;;;11.30;99.90;;;;;;4977506;28;20066;-56
2023/07/14 04:03:47;;;;;;;4.95;2.50;;;11.40;99.90;;;;;;4979175;28;20518;-57
2023/07/14 04:06:12;;;;;;;4.78;2.60;;;11.40;99.90;;;;;;4978310;28;20019;-57
2023/07/14 04:08:39;;;;;;;3.05;2.72;;;11.50;99.90;;;;;;4978154;28;20033;-57
2023/07/14 04:11:05;;;;;;;2.72;2.00;;;11.50;99.90;;;;;;4976201;28;20141;-57
2023/07/14 04:13:32;;;;;;;3.42;2.55;;;11.50;99.90;;;;;;4980560;28;20049;-57
2023/07/14 04:15:58;;;;;;;3.92;2.78;;;11.50;99.90;;;;;;4978754;28;20031;-56
2023/07/14 04:18:24;;;;;;;4.10;3.00;;;11.50;99.90;;;;;;4979416;28;20931;-55
2023/07/14 04:20:50;;;;;;;5.43;2.90;;;11.50;99.90;;;;;;4977783;28;20034;-56
2023/07/14 04:23:17;;;;;;;5.40;2.90;;;11.50;99.90;;;;;;4978818;28;20112;-57
2023/07/14 04:25:44;;;;;;;6.38;2.83;;;11.50;99.90;;;;;;4975555;28;20133;-56
2023/07/14 04:28:10;;;;;;;6.80;2.75;;;11.50;99.90;;;;;;4974173;28;20027;-57
2023/07/14 04:30:36;;;;;;;6.30;2.80;;;11.60;99.90;;;;;;4976416;28;20038;-57
2023/07/14 04:33:04;;;;;;;4.53;2.97;;;11.60;99.90;;;;;;4975430;28;20041;-55
2023/07/14 04:35:29;;;;;;;8.05;2.95;;;11.60;99.90;;;;;;4981063;28;20108;-58
2023/07/14 04:37:55;;;;;;;4.60;3.17;;;11.70;99.90;;;;;;4975303;28;20042;-57
2023/07/14 04:40:21;;;;;;;4.60;2.95;;;11.70;99.90;;;;;;4978371;28;20080;-55
2023/07/14 04:42:47;;;;;;;3.83;2.45;;;11.70;99.90;;;;;;4976318;28;20114;-57
2023/07/14 04:45:16;;;;;;;6.00;2.30;;;11.80;99.90;;;;;;4976282;28;20034;-57
2023/07/14 04:47:42;;;;;;;4.65;3.03;;;11.90;99.90;;;;;;4977342;28;20031;-57
2023/07/14 04:50:08;;;;;;;8.93;2.97;;;12.00;99.90;;;;;;4976147;28;20015;-55
2023/07/14 04:52:34;;;;;;;3.38;2.75;;;12.10;99.90;;;;;;4978623;28;20053;-56
2023/07/14 04:55:00;;;;;;;5.15;2.88;;;12.20;99.90;;;;;;4978422;28;20549;-55
2023/07/14 04:57:25;;;;;;;5.55;3.13;;;12.30;99.90;;;;;;4976955;28;20165;-55
2023/07/14 04:59:51;;;;;;;4.88;2.97;;;12.40;99.90;;;;;;4976904;28;20122;-54
2023/07/14 05:02:17;;;;;;;5.15;3.10;;;12.50;99.90;;;;;;4978740;28;20027;-56
2023/07/14 05:04:43;;;;;;;9.88;3.30;;;12.50;99.90;;;;;;4976352;28;20034;-57
2023/07/14 05:07:09;;;;;;;3.83;3.38;;;12.60;99.90;;;;;;4975452;28;20019;-56
2023/07/14 05:09:35;;;;;;;2.97;2.67;;;12.60;99.90;;;;;;4979540;28;20027;-55
2023/07/14 05:12:01;;;;;;;3.28;2.97;;;12.70;99.90;;;;;;4974924;28;20027;-55
2023/07/14 05:14:27;;;;;;;6.45;2.88;;;12.80;99.90;;;;;;4974780;28;20029;-56
2023/07/14 05:16:53;;;;;;;8.00;4.32;;;12.90;99.90;;;;;;4978301;28;20010;-57
2023/07/14 05:19:20;;;;;;;4.22;3.40;;;13.00;99.90;;;;;;4978158;28;20042;-57
2023/07/14 05:21:45;;;;;;;6.25;3.88;;;13.20;99.90;;;;;;4979279;28;20023;-57
2023/07/14 05:24:11;;;;;;;5.70;4.15;;;13.30;99.90;;;;;;4977111;28;20046;-56
2023/07/14 05:26:37;;;;;;;5.10;3.22;;;13.30;99.90;;;;;;4976150;28;21332;-57
2023/07/14 05:29:05;;;;;;;4.90;3.38;;;13.40;99.90;;;;;;4977367;28;20089;-57
2023/07/14 05:31:32;;;;;;;5.63;3.35;;;13.50;99.90;;;;;;4978306;28;20035;-58
2023/07/14 05:33:58;;;;;;;6.10;3.47;;;13.70;99.90;;;;;;4979061;28;20037;-58
2023/07/14 05:36:24;;;;;;;4.18;3.58;;;13.80;99.90;;;;;;4980899;28;20030;-57
2023/07/14 05:38:49;;;;;;;5.10;3.65;;;14.00;99.90;;;;;;4980328;28;20038;-57
2023/07/14 05:41:16;;;;;;;4.18;3.78;;;14.10;99.90;;;;;;4982027;28;20031;-57
2023/07/14 05:43:42;;;;;;;4.18;3.10;;;14.30;99.90;;;;;;4977856;28;20042;-57
2023/07/14 05:46:07;;;;;;;14.10;3.60;;;14.40;99.90;;;;;;4981134;28;20034;-58
2023/07/14 05:48:33;;;;;;;7.13;3.10;;;14.50;99.90;;;;;;4980982;28;20039;-58
2023/07/14 05:50:58;;;;;;;3.53;2.85;;;14.60;99.90;;;;;;4980157;28;20027;-58
2023/07/14 05:53:24;;;;;;;5.95;3.00;;;14.70;99.90;;;;;;4981369;28;20018;-57
2023/07/14 05:55:50;;;;;;;16.20;3.53;;;14.80;99.90;;;;;;4978263;28;20015;-57
2023/07/14 05:58:15;;;;;;;8.88;2.67;;;14.90;99.90;;;;;;4980966;28;20034;-57
2023/07/14 06:00:42;;;;;;;7.13;3.00;;;15.10;99.90;;;;;;4976954;28;20124;-57
2023/07/14 06:03:16;;;;;;;10.00;2.97;;;15.20;99.90;;;;;;4983206;28;20414;-57
2023/07/14 06:05:41;;;;;;;4.90;2.72;;;15.40;99.90;;;;;;4978986;28;20490;-56
2023/07/14 06:08:07;;;;;;;4.40;2.72;;;15.40;99.90;;;;;;4979735;28;20026;-57
2023/07/14 06:10:34;;;;;;;5.45;2.38;;;15.60;99.90;;;;;;4978088;28;20022;-58
2023/07/14 06:13:00;;;;;;;4.88;2.65;;;15.70;99.90;;;;;;4977212;28;20034;-58
2023/07/14 06:15:27;;;;;;;7.13;2.85;;;15.90;99.90;;;;;;4978392;28;20023;-58
2023/07/14 06:17:53;;;;;;;3.67;2.90;;;16.00;99.90;;;;;;4979360;28;20023;-58
2023/07/14 06:20:20;;;;;;;3.05;2.30;;;16.10;99.90;;;;;;4979640;28;20037;-59
2023/07/14 06:22:45;;;;;;;4.35;2.20;;;16.30;99.90;;;;;;4979464;28;20034;-58
2023/07/14 06:25:12;;;;;;;4.65;2.05;;;16.40;99.90;;;;;;4980191;28;20672;-58
2023/07/14 06:27:38;;;;;;;3.42;2.25;;;16.60;99.90;;;;;;4977511;28;20026;-58
2023/07/14 06:30:04;;;;;;;2.78;1.88;;;16.80;99.90;;;;;;4979250;28;20026;-58
2023/07/14 06:32:30;;;;;;;5.28;2.33;;;17.00;99.90;;;;;;4980776;28;20057;-58
2023/07/14 06:34:56;;;;;;;6.72;2.30;;;17.20;99.90;;;;;;4979006;28;20057;-57
2023/07/14 06:37:24;;;;;;;4.38;1.88;;;17.30;99.90;;;;;;4977450;28;20039;-58
2023/07/14 06:39:50;;;;;;;3.92;2.00;;;17.50;99.90;;;;;;4980173;28;20125;-58
2023/07/14 06:42:16;;;;;;;6.95;1.70;;;17.70;99.90;;;;;;4978030;28;20515;-57
2023/07/14 06:44:42;;;;;;;6.38;1.73;;;17.80;99.90;;;;;;4979593;28;20026;-59
2023/07/14 06:47:08;;;;;;;11.82;2.05;;;17.90;99.90;;;;;;4978939;28;20407;-58
2023/07/14 06:49:34;;;;;;;3.38;1.88;;;17.90;99.90;;;;;;4979965;28;20023;-57
2023/07/14 06:52:00;;;;;;;3.38;1.70;;;18.00;99.90;;;;;;4980845;28;20140;-57
2023/07/14 06:54:26;;;;;;;3.72;1.67;;;18.10;99.90;;;;;;4981614;28;20522;-58
2023/07/14 06:56:52;;;;;;;3.75;1.60;;;18.20;99.90;;;;;;4982335;28;20487;-58
2023/07/14 06:59:17;;;;;;;3.78;2.03;;;18.30;99.90;;;;;;4979167;28;20027;-57
2023/07/14 07:01:43;;;;;;;6.15;1.80;;;18.50;99.90;;;;;;4979120;28;20474;-58
2023/07/14 07:04:09;;;;;;;4.68;1.70;;;18.70;99.90;;;;;;4979908;28;20030;-59
2023/07/14 07:06:34;;;;;;;3.63;1.45;;;18.80;99.90;;;;;;4980454;28;20027;-58
2023/07/14 07:09:00;;;;;;;6.53;1.60;;;18.90;99.90;;;;;;4979348;28;20852;-57
2023/07/14 07:11:25;;;;;;;3.10;1.30;;;19.00;99.90;;;;;;4979789;28;20047;-58
2023/07/14 07:13:51;;;;;;;2.92;1.50;;;19.10;99.90;;;;;;4983250;28;20029;-58
2023/07/14 07:16:17;;;;;;;2.90;1.35;;;19.20;99.90;;;;;;4980384;28;20026;-58
2023/07/14 07:18:42;;;;;;;2.40;1.40;;;19.30;99.90;;;;;;4975724;28;20514;-58
2023/07/14 07:21:12;;;;;;;2.42;1.40;;;19.50;99.90;;;;;;4975379;28;20037;-56
2023/07/14 07:23:38;;;;;;;2.13;1.40;;;19.70;99.90;;;;;;4978886;28;20035;-55
2023/07/14 07:26:03;;;;;;;1.35;1.23;;;19.90;99.90;;;;;;4978386;28;20462;-57
2023/07/14 07:28:29;;;;;;;3.00;1.20;;;20.10;99.90;;;;;;4979637;28;20035;-57
2023/07/14 07:30:55;;;;;;;2.20;1.35;;;20.50;99.90;;;;;;4977870;28;20034;-55
2023/07/14 07:33:20;;;;;;;2.08;1.05;;;20.80;99.50;;;;;;4979635;28;20058;-58
2023/07/14 07:35:46;;;;;;;2.55;1.10;;;21.10;99.90;;;;;;4979557;28;20023;-57
2023/07/14 07:38:13;;;;;;;2.22;1.45;;;21.10;97.10;;;;;;4978715;28;20491;-57
2023/07/14 07:40:40;;;;;;;2.58;1.45;;;21.30;97.40;;;;;;4974251;28;20034;-56
2023/07/14 07:43:06;;;;;;;1.90;1.00;;;21.30;93.80;;;;;;4974193;28;20088;-57
2023/07/14 07:45:31;;;;;;;3.33;1.40;;;21.40;93.40;;;;;;4974288;28;20410;-59
2023/07/14 07:47:57;;;;;;;4.45;1.35;;;21.50;93.10;;;;;;4979596;28;20038;-58
2023/07/14 07:50:26;;;;;;;2.15;1.02;;;21.60;94.30;;;;;;4979251;28;20027;-57
2023/07/14 07:52:52;;;;;;;2.42;1.10;;;21.60;92.50;;;;;;4974145;28;20027;-57
2023/07/14 07:55:17;;;;;;;8.88;1.20;;;21.70;91.50;;;;;;4976450;28;20030;-57
2023/07/14 07:57:44;;;;;;;4.03;1.20;;;21.70;89.80;;;;;;4975028;28;20121;-57
2023/07/14 08:00:11;;;;;;;2.42;1.13;;;21.70;86.40;;;;;;4976949;28;20534;-57
2023/07/14 08:02:36;;;;;;;4.45;1.52;;;21.90;86.70;;;;;;4977163;28;20049;-57
2023/07/14 08:05:02;;;;;;;6.25;1.30;;;22.00;84.30;;;;;;4978177;28;20402;-58
2023/07/14 08:07:28;;;;;;;4.72;1.30;;;22.10;83.90;;;;;;4977513;28;20054;-57
2023/07/14 08:09:53;;;;;;;2.45;0.90;;;22.10;81.60;;;;;;4976996;28;20043;-57
2023/07/14 08:12:19;;;;;;;3.08;1.50;;;22.10;80.50;;;;;;4976956;28;20031;-58
2023/07/14 08:14:56;;;;;;;2.80;0.90;;;22.10;77.70;;;;;;4975320;28;20082;-58
2023/07/14 08:17:27;;;;;;;2.72;0.90;;;22.30;75.50;;;;;;4974876;28;20066;-57
2023/07/14 08:19:53;;;;;;;4.00;0.98;;;22.40;76.80;;;;;;4977412;28;20030;-57
2023/07/14 08:22:20;;;;;;;1.13;0.90;;;22.60;74.80;;;;;;4976327;28;20657;-58
2023/07/14 08:24:46;;;;;;;1.65;1.20;;;22.80;72.70;;;;;;4975818;28;20035;-58
2023/07/14 08:27:12;;;;;;;2.38;1.33;;;23.00;70.40;;;;;;4975393;28;20428;-58
2023/07/14 08:29:38;;;;;;;3.80;0.90;;;23.20;69.20;;;;;;4977220;28;20117;-57
2023/07/14 08:32:03;;;;;;;3.67;0.98;;;23.40;72.20;;;;;;4978417;28;20038;-56
2023/07/14 08:34:29;;;;;;;2.28;0.82;;;23.70;70.40;;;;;;4976389;28;20404;-59
2023/07/14 08:36:55;;;;;;;2.17;1.00;;;23.90;70.20;;;;;;4978856;28;20041;-58
2023/07/14 08:39:21;;;;;;;3.50;1.20;;;24.10;67.40;;;;;;4976035;28;20034;-58
2023/07/14 08:41:52;;;;;;;7.40;1.00;;;24.20;67.50;;;;;;4976427;28;20038;-58
2023/07/14 08:44:33;;;;;;;3.83;1.17;;;24.40;65.80;;;;;;4976913;28;20022;-58
2023/07/14 08:47:43;;;;;;;1.35;0.95;;;24.60;63.10;;;;;;4977118;28;20109;-57
2023/07/14 08:50:19;;;;;;;6.67;1.20;;;24.80;63.30;;;;;;4992983;28;20030;-55
2023/07/14 08:52:47;;;;;;;1.67;0.90;;;25.00;60.80;;;;;;4977903;28;20132;-57
2023/07/14 08:55:20;;;;;;;4.53;1.08;;;25.10;61.80;;;;;;4979169;28;20058;-58
2023/07/14 08:58:04;;;;;;;3.90;0.90;;;25.30;61.20;;;;;;4976152;28;20695;-57
2023/07/14 09:00:29;;;;;;;3.45;0.95;;;25.30;62.30;;;;;;4977111;28;20041;-58
2023/07/14 09:03:17;;;;;;;2.70;1.02;;;25.50;61.60;;;;;;4977654;28;20030;-56
2023/07/14 09:05:53;;;;;;;1.92;0.90;;;25.70;62.00;;;;;;4973290;28;20031;-58
2023/07/14 09:08:25;;;;;;;1.35;0.77;;;25.70;60.80;;;;;;4974334;28;20030;-58
2023/07/14 09:11:12;;;;;;;5.53;0.82;;;25.90;61.40;;;;;;4975729;28;20019;-58
2023/07/14 09:13:54;;;;;;;2.92;0.95;;;26.00;59.50;;;;;;4982485;28;20037;-58
2023/07/14 09:16:23;;;;;;;1.35;0.93;;;26.10;58.40;;;;;;4979969;28;20058;-57
2023/07/14 09:19:26;;;;;;;4.28;0.90;;;26.10;58.40;;;;;;4980418;28;20105;-59
2023/07/14 09:21:59;;;;;;;1.63;0.90;;;26.30;57.80;;;;;;4977733;28;20108;-58
2023/07/14 09:24:36;;;;;;;1.45;0.88;;;26.60;56.60;;;;;;4976774;28;20082;-58
2023/07/14 09:27:03;;;;;;;2.35;1.23;;;26.70;56.70;;;;;;4982024;28;20105;-57
2023/07/14 09:29:41;;;;;;;3.22;0.93;;;26.80;57.00;;;;;;4980871;28;20030;-58
2023/07/14 09:32:35;;;;;;;1.40;0.90;;;26.60;54.60;;;;;;4981965;28;20109;-56
2023/07/14 09:35:31;;;;;;;3.60;0.90;;;26.30;56.50;;;;;;4980412;28;20042;-58
2023/07/14 09:38:24;;;;;;;4.68;1.25;;;25.90;56.00;;;;;;4979717;28;20035;-59
2023/07/14 09:40:57;;;;;;;1.90;1.20;;;25.60;57.00;;;;;;4999739;28;20045;-59
2023/07/14 09:43:22;;;;;;;1.70;0.90;;;25.50;57.50;;;;;;4998553;28;20027;-58
2023/07/14 09:45:53;;;;;;;2.30;0.80;;;25.50;55.40;;;;;;4995890;28;20045;-58
2023/07/14 09:48:31;;;;;;;;;;;25.60;53.90;;;;;;4998883;28;20030;-59
2023/07/14 09:50:59;;;;;;;3.45;0.98;;;25.80;53.10;;;;;;4998866;28;19914;-60
2023/07/14 09:53:26;;;;;;;2.95;0.90;;;26.10;53.70;;;;;;4997665;28;20089;-58
2023/07/14 09:56:00;;;;;;;1.67;0.80;;;26.40;53.20;;;;;;4998184;28;20106;-58
2023/07/14 09:58:28;;;;;;;2.03;0.93;;;26.50;49.90;;;;;;4999395;28;20041;-57
2023/07/14 10:00:57;;;;;;;1.77;0.90;;;26.30;52.40;;;;;;4996563;28;20038;-58
2023/07/14 10:03:30;;;;;;;1.45;1.02;;;26.20;51.40;;;;;;4993838;28;20039;-56
2023/07/14 10:06:03;;;;;;;2.67;1.20;;;26.10;51.10;;;;;;5000106;28;20021;-59
2023/07/14 10:08:48;;;;;;;1.92;1.00;;;26.00;50.50;;;;;;4997412;28;20733;-58
2023/07/14 10:11:17;;;;;;;2.35;1.10;;;26.00;49.90;;;;;;4997200;28;20572;-57
2023/07/14 10:13:54;;;;;;;3.80;1.17;;;26.00;52.40;;;;;;4997995;28;20583;-59
2023/07/14 10:16:21;;;;;;;2.30;0.90;;;26.20;50.90;;;;;;4995942;28;20031;-58
2023/07/14 10:18:54;;;;;;;3.17;1.10;;;26.60;50.50;;;;;;4992844;28;20074;-56
2023/07/14 10:21:27;;;;;;;3.13;1.02;;;26.90;50.50;;;;;;4998536;28;20034;-59
2023/07/14 10:23:58;;;;;;;2.40;1.00;;;27.10;49.10;;;;;;5000222;28;20034;-57
2023/07/14 10:26:28;;;;;;;8.10;1.40;;;27.00;50.40;;;;;;4997872;28;20085;-58
2023/07/14 10:28:54;;;;;;;2.70;1.10;;;26.80;49.90;;;;;;5002536;28;20026;-58
2023/07/14 10:31:23;;;;;;;1.88;0.90;;;26.70;50.90;;;;;;4968800;28;20030;-59
2023/07/14 10:34:00;;;;;;;3.60;0.85;;;26.60;49.50;;;;;;4997600;28;20061;-58
2023/07/14 10:36:34;;;;;;;2.78;1.17;;;26.60;50.70;;;;;;4998689;28;20034;-58
2023/07/14 10:39:18;;;;;;;1.88;0.90;;;26.70;50.10;;;;;;4997253;28;20552;-59
2023/07/14 10:41:48;;;;;;;1.83;0.85;;;26.80;49.70;;;;;;5012837;28;20052;-59
2023/07/14 10:44:27;;;;;;;1.48;0.90;;;26.60;49.40;;;;;;4999924;28;20022;-58
2023/07/14 10:46:58;;;;;;;2.70;1.00;;;26.20;49.70;;;;;;4997168;28;20034;-59
2023/07/14 10:49:24;;;;;;;1.30;1.20;;;26.00;50.80;;;;;;4996156;28;20432;-58
2023/07/14 10:51:57;;;;;;;2.13;0.98;;;26.10;51.90;;;;;;4991552;28;20077;-57
2023/07/14 10:54:45;;;;;;;2.60;0.90;;;26.30;49.70;;;;;;4995319;28;20034;-59
2023/07/14 10:57:35;;;;;;;2.05;1.00;;;26.60;50.60;;;;;;4998451;28;20024;-58
2023/07/14 11:00:25;;;;;;;3.47;1.10;;;27.00;49.10;;;;;;4997391;28;20085;-57
2023/07/14 11:03:10;;;;;;;2.70;1.10;;;27.30;49.00;;;;;;4999600;28;20041;-59
2023/07/14 11:05:38;;;;;;;2.97;1.05;;;27.60;48.40;;;;;;4999542;28;21133;-58
2023/07/14 11:08:04;;;;;;;2.28;1.00;;;27.90;48.00;;;;;;4996858;28;20100;-57
2023/07/14 11:10:39;;;;;;;1.48;1.00;;;27.90;47.60;;;;;;4993996;28;20418;-58
2023/07/14 11:13:27;;;;;;;1.88;0.80;;;27.80;47.00;;;;;;4996820;28;20036;-58
2023/07/14 11:16:01;;;;;;;2.70;1.05;;;27.80;47.30;;;;;;4983575;28;20061;-59
2023/07/14 11:18:45;;;;;;;4.07;1.10;;;28.00;48.50;;;;;;4997789;28;20482;-58
2023/07/14 11:21:20;;;;;;;3.78;1.55;;;28.20;48.00;;;;;;4995563;28;20821;-59
2023/07/14 11:23:59;;;;;;;2.33;0.93;;;28.40;45.50;;;;;;4998406;28;20022;-60
2023/07/14 11:26:42;;;;;;;2.78;0.90;;;28.50;45.30;;;;;;4994318;28;20023;-59
2023/07/14 11:29:15;;;;;;;1.00;0.90;;;28.70;46.60;;;;;;4998761;28;20045;-58
2023/07/14 11:31:51;;;;;;;2.85;1.00;;;28.90;45.50;;;;;;4999903;28;20038;-57
2023/07/14 11:34:30;;;;;;;2.55;1.30;;;29.00;44.70;;;;;;4996473;28;20753;-58
2023/07/14 11:37:06;;;;;;;1.80;0.95;;;29.10;44.60;;;;;;4999068;28;20038;-58
2023/07/14 11:39:56;;;;;;;1.77;1.20;;;29.00;45.40;;;;;;4996253;28;20364;-59
2023/07/14 11:42:26;;;;;;;1.80;1.00;;;29.00;45.30;;;;;;4996365;28;20037;-58
2023/07/14 11:44:55;;;;;;;3.10;1.23;;;28.90;45.20;;;;;;4996609;28;20080;-59
2023/07/14 11:47:30;;;;;;;3.47;1.10;;;28.80;44.30;;;;;;4996006;28;20044;-59
2023/07/14 11:50:00;;;;;;;1.85;1.00;;;28.60;46.30;;;;;;4995657;28;20109;-57
2023/07/14 11:52:29;;;;;;;3.30;1.30;;;28.60;45.90;;;;;;4996584;28;20084;-59
2023/07/14 11:55:01;;;;;;;2.72;1.27;;;28.60;46.90;;;;;;4995192;28;20029;-58
2023/07/14 11:57:28;;;;;;;2.63;0.93;;;28.40;44.90;;;;;;4996749;28;20026;-57
2023/07/14 12:00:23;;;;;;;1.40;0.98;;;28.30;45.80;;;;;;4995523;28;20534;-59
2023/07/14 12:03:00;;;;;;;3.53;1.20;;;28.40;46.80;;;;;;4995405;28;20034;-59
2023/07/14 12:05:38;;;;;;;1.30;1.00;;;28.50;45.10;;;;;;4992348;28;20034;-58
2023/07/14 12:08:10;;;;;;;6.18;1.17;;;28.60;46.40;;;;;;4994856;28;20019;-59
2023/07/14 12:10:39;;;;;;;2.53;1.10;;;28.90;45.40;;;;;;4996429;28;20033;-59
2023/07/14 12:13:16;;;;;;;1.83;0.93;;;28.70;44.50;;;;;;4993669;28;20135;-59
2023/07/14 12:15:49;;;;;;;2.67;1.10;;;28.80;45.90;;;;;;4996633;28;20418;-58
2023/07/14 12:18:34;;;;;;;2.33;1.20;;;28.80;47.10;;;;;;4996951;28;20461;-57
2023/07/14 12:21:18;;;;;;;1.38;1.08;;;28.90;44.40;;;;;;4995415;28;20671;-56
2023/07/14 12:24:07;;;;;;;1.17;1.00;;;28.90;46.50;;;;;;4996494;28;20018;-57
2023/07/14 12:26:38;;;;;;;2.40;1.55;;;28.70;45.80;;;;;;4997142;28;20099;-56
2023/07/14 12:29:16;;;;;;;2.17;1.10;;;28.60;45.70;;;;;;4995892;28;20076;-59
2023/07/14 12:31:47;;;;;;;2.17;1.00;;;28.40;46.90;;;;;;4997462;28;20388;-59
2023/07/14 12:34:19;;;;;;;2.00;0.98;;;28.40;46.10;;;;;;4993939;28;20038;-59
2023/07/14 12:36:45;;;;;;;1.55;1.00;;;28.40;46.50;;;;;;4995702;28;20036;-58
2023/07/14 12:39:11;;;;;;;1.33;0.98;;;28.50;46.80;;;;;;4996548;28;20404;-57
2023/07/14 12:41:40;;;;;;;4.22;1.27;;;28.40;47.30;;;;;;4997495;28;20088;-56
2023/07/14 12:44:18;;;;;;;1.92;1.02;;;28.30;47.90;;;;;;4996314;28;20044;-57
2023/07/14 12:46:43;;;;;;;1.88;1.00;;;28.20;46.80;;;;;;4994418;28;20040;-56
2023/07/14 12:49:32;;;;;;;1.60;1.20;;;28.20;47.50;;;;;;4996364;28;20030;-57
2023/07/14 12:52:03;;;;;;;2.20;1.30;;;28.10;46.30;;;;;;4994003;28;20030;-57
2023/07/14 12:54:29;;;;;;;1.17;0.90;;;28.00;47.90;;;;;;4996169;28;20073;-57
2023/07/14 12:56:58;;;;;;;1.77;1.20;;;27.90;48.70;;;;;;4995074;28;20073;-57
2023/07/14 12:59:23;;;;;;;4.30;1.10;;;28.10;47.70;;;;;;4996000;28;20034;-56
2023/07/14 13:01:50;;;;;;;2.85;1.30;;;28.40;46.40;;;;;;4998685;28;20053;-58
2023/07/14 13:04:18;;;;;;;5.05;1.30;;;28.60;46.30;;;;;;4999529;28;20546;-59